createdAt,value
2018-10-19T00:01:25.702Z,93.40
2018-10-19T00:03:53.884Z,93.30
2018-10-19T00:06:22.054Z,93.30
2018-10-19T00:08:50.211Z,93.30
2018-10-19T00:11:18.354Z,93.20
2018-10-19T00:13:46.625Z,93.20
2018-10-19T00:16:14.853Z,93.30
2018-10-19T00:18:42.999Z,93.30
2018-10-19T00:21:11.255Z,93.50
2018-10-19T00:23:39.359Z,93.40
2018-10-19T00:26:07.550Z,93.50
2018-10-19T00:28:35.710Z,93.60
2018-10-19T00:31:03.878Z,93.50
2018-10-19T00:33:32.056Z,93.70
2018-10-19T00:36:00.328Z,93.90
2018-10-19T00:38:28.486Z,93.70
2018-10-19T00:40:56.681Z,93.60
2018-10-19T00:43:24.832Z,93.80
2018-10-19T00:45:52.983Z,93.70
2018-10-19T00:48:21.154Z,93.70
2018-10-19T00:50:49.335Z,93.90
2018-10-19T00:53:17.490Z,93.80
2018-10-19T00:55:45.646Z,93.50
2018-10-19T00:58:13.828Z,93.30
2018-10-19T01:00:42.751Z,93.40
2018-10-19T01:03:11.314Z,93.40
2018-10-19T01:05:40.233Z,93.30
2018-10-19T01:08:08.994Z,93.40
2018-10-19T01:10:37.163Z,93.50
2018-10-19T01:13:05.635Z,93.40
2018-10-19T01:15:33.826Z,93.60
2018-10-19T01:18:02.060Z,93.50
2018-10-19T01:20:30.222Z,93.40
2018-10-19T01:22:58.397Z,93.40
2018-10-19T01:25:26.557Z,93.10
2018-10-19T01:27:54.731Z,93.20
2018-10-19T01:30:22.933Z,93.30
2018-10-19T01:32:51.054Z,93.20
2018-10-19T01:35:19.250Z,93.20
2018-10-19T01:37:47.427Z,93.20
2018-10-19T01:40:15.601Z,93.20
2018-10-19T01:42:43.754Z,93.00
2018-10-19T01:45:12.907Z,93.10
2018-10-19T01:47:41.706Z,93.10
2018-10-19T01:50:10.620Z,93.00
2018-10-19T01:52:39.412Z,93.00
2018-10-19T01:55:07.629Z,92.90
2018-10-19T01:57:35.804Z,92.80
2018-10-19T02:00:04.139Z,92.90
2018-10-19T02:02:32.503Z,92.80
2018-10-19T02:05:00.751Z,93.00
2018-10-19T02:07:28.881Z,93.00
2018-10-19T02:09:56.994Z,93.00
2018-10-19T02:12:25.183Z,93.10
2018-10-19T02:14:53.421Z,93.00
2018-10-19T02:17:21.564Z,93.40
2018-10-19T02:19:49.708Z,93.10
2018-10-19T02:22:17.860Z,93.00
2018-10-19T02:24:46.037Z,93.10
2018-10-19T02:27:14.286Z,92.90
2018-10-19T02:29:42.391Z,92.90
2018-10-19T02:32:10.541Z,92.80
2018-10-19T02:34:38.706Z,92.80
2018-10-19T02:37:07.239Z,92.90
2018-10-19T02:39:35.395Z,92.90
2018-10-19T02:42:03.595Z,92.90
2018-10-19T02:44:31.883Z,92.90
2018-10-19T02:47:00.060Z,92.80
2018-10-19T02:49:28.206Z,92.80
2018-10-19T02:51:56.362Z,92.70
2018-10-19T02:54:24.542Z,92.50
2018-10-19T02:56:52.684Z,92.60
2018-10-19T02:59:20.860Z,92.60
2018-10-19T03:01:49.015Z,92.60
2018-10-19T03:04:17.173Z,92.50
2018-10-19T03:06:45.339Z,92.50
2018-10-19T03:09:13.560Z,92.30
2018-10-19T03:11:41.825Z,92.40
2018-10-19T03:14:09.877Z,92.40
2018-10-19T03:16:38.031Z,92.40
2018-10-19T03:19:06.186Z,92.60
2018-10-19T03:21:34.373Z,92.60
2018-10-19T03:24:02.523Z,92.90
2018-10-19T03:26:30.690Z,92.70
2018-10-19T03:28:58.827Z,92.60
2018-10-19T03:31:27.019Z,92.50
2018-10-19T03:33:55.094Z,92.50
2018-10-19T03:36:23.262Z,92.60
2018-10-19T03:38:51.392Z,92.60
2018-10-19T03:41:19.514Z,92.60
2018-10-19T03:43:47.806Z,92.50
2018-10-19T03:46:15.947Z,92.50
2018-10-19T03:48:44.091Z,92.50
2018-10-19T03:51:12.289Z,92.60
2018-10-19T03:53:40.364Z,92.80
2018-10-19T03:56:08.505Z,92.50
2018-10-19T03:58:36.638Z,92.50
2018-10-19T04:01:04.918Z,92.50
2018-10-19T04:03:33.090Z,92.60
2018-10-19T04:06:01.256Z,92.60
2018-10-19T04:08:29.342Z,92.60
2018-10-19T04:10:57.486Z,92.70
2018-10-19T04:13:25.793Z,92.80
2018-10-19T04:15:53.947Z,92.80
2018-10-19T04:18:22.094Z,92.80
2018-10-19T04:20:50.254Z,93.00
2018-10-19T04:23:18.474Z,93.20
2018-10-19T04:25:46.543Z,93.50
2018-10-19T04:28:14.686Z,93.70
2018-10-19T04:30:42.828Z,93.80
2018-10-19T04:33:11.062Z,93.90
2018-10-19T04:35:39.126Z,94.10
2018-10-19T04:38:07.298Z,94.20
2018-10-19T04:40:35.430Z,94.40
2018-10-19T04:43:03.583Z,94.40
2018-10-19T04:45:31.742Z,94.20
2018-10-19T04:47:59.878Z,94.10
2018-10-19T04:50:28.033Z,94.30
2018-10-19T04:52:56.174Z,94.30
2018-10-19T04:55:24.318Z,94.30
2018-10-19T04:57:52.487Z,94.40
2018-10-19T05:00:21.400Z,94.50
2018-10-19T05:02:50.532Z,94.40
2018-10-19T05:05:18.841Z,94.60
2018-10-19T05:07:46.911Z,94.70
2018-10-19T05:10:15.062Z,94.80
2018-10-19T05:12:43.298Z,94.70
2018-10-19T05:15:12.185Z,94.70
2018-10-19T05:17:40.339Z,94.80
2018-10-19T05:20:10.263Z,94.70
2018-10-19T05:22:38.510Z,94.70
2018-10-19T05:25:09.451Z,94.80
2018-10-19T05:27:37.634Z,94.70
2018-10-19T05:30:07.442Z,94.50
2018-10-19T05:32:35.641Z,94.60
2018-10-19T05:35:03.869Z,94.50
2018-10-19T05:37:32.556Z,94.50
2018-10-19T05:40:01.304Z,94.50
2018-10-19T05:42:29.511Z,94.40
2018-10-19T05:44:57.671Z,94.50
2018-10-19T05:47:25.923Z,94.20
2018-10-19T05:49:54.259Z,94.10
2018-10-19T05:52:22.461Z,94.10
2018-10-19T05:54:50.831Z,94.10
2018-10-19T05:57:18.989Z,93.80
2018-10-19T05:59:47.217Z,93.80
2018-10-19T06:02:15.435Z,93.60
2018-10-19T06:04:43.542Z,93.80
2018-10-19T06:07:11.743Z,93.90
2018-10-19T06:09:39.870Z,93.80
2018-10-19T06:12:08.164Z,93.70
2018-10-19T06:14:36.315Z,93.60
2018-10-19T06:17:05.125Z,93.80
2018-10-19T06:19:33.342Z,94.00
2018-10-19T06:22:01.491Z,93.80
2018-10-19T06:24:29.668Z,93.80
2018-10-19T06:26:57.808Z,93.70
2018-10-19T06:29:26.623Z,93.80
2018-10-19T06:31:54.828Z,94.00
2018-10-19T06:34:23.012Z,93.90
2018-10-19T06:36:51.167Z,93.80
2018-10-19T06:39:19.341Z,94.10
2018-10-19T06:41:47.467Z,93.80
2018-10-19T06:44:15.746Z,93.90
2018-10-19T06:46:43.873Z,94.10
2018-10-19T06:49:12.078Z,93.80
2018-10-19T06:51:40.136Z,93.80
2018-10-19T06:54:08.301Z,93.70
2018-10-19T06:56:36.465Z,93.20
2018-10-19T06:59:04.692Z,93.00
2018-10-19T07:01:32.850Z,93.00
2018-10-19T07:04:01.040Z,92.90
2018-10-19T07:06:29.178Z,92.80
2018-10-19T07:08:57.341Z,92.50
2018-10-19T07:11:25.490Z,92.40
2018-10-19T07:13:53.649Z,92.50
2018-10-19T07:16:21.799Z,92.60
2018-10-19T07:18:50.055Z,92.90
2018-10-19T07:21:18.971Z,92.90
2018-10-19T07:23:47.106Z,93.20
2018-10-19T07:26:15.335Z,93.00
2018-10-19T07:28:43.493Z,93.00
2018-10-19T07:31:11.651Z,92.90
2018-10-19T07:33:39.786Z,93.00
2018-10-19T07:36:07.953Z,93.20
2018-10-19T07:38:36.099Z,92.90
2018-10-19T07:41:04.306Z,92.80
2018-10-19T07:43:32.408Z,93.00
2018-10-19T07:46:00.542Z,92.80
2018-10-19T07:48:28.810Z,92.80
2018-10-19T07:50:57.150Z,93.00
2018-10-19T07:53:25.640Z,93.00
2018-10-19T07:55:53.832Z,93.00
2018-10-19T07:58:21.929Z,93.00
2018-10-19T08:00:50.198Z,92.80
2018-10-19T08:03:18.368Z,92.50
2018-10-19T08:05:46.503Z,92.50
2018-10-19T08:08:14.656Z,92.40
2018-10-19T08:10:42.782Z,92.20
2018-10-19T08:13:10.934Z,91.90
2018-10-19T08:15:39.090Z,91.80
2018-10-19T08:18:07.226Z,92.20
2018-10-19T08:20:35.374Z,92.20
2018-10-19T08:23:03.665Z,92.20
2018-10-19T08:25:31.735Z,91.90
2018-10-19T08:27:59.874Z,91.60
2018-10-19T08:30:28.057Z,91.40
2018-10-19T08:32:56.211Z,91.20
2018-10-19T08:35:24.355Z,90.90
2018-10-19T08:37:52.582Z,91.00
2018-10-19T08:40:20.720Z,90.90
2018-10-19T08:42:48.863Z,90.50
2018-10-19T08:45:17.090Z,90.60
2018-10-19T08:47:45.347Z,90.00
2018-10-19T08:50:14.538Z,89.50
2018-10-19T08:52:42.695Z,88.90
2018-10-19T08:55:10.996Z,88.70
2018-10-19T08:57:39.109Z,88.80
2018-10-19T09:00:09.434Z,88.00
2018-10-19T09:02:37.480Z,88.70
2018-10-19T09:05:05.966Z,87.30
2018-10-19T09:07:34.118Z,86.90
2018-10-19T09:10:02.262Z,86.70
2018-10-19T09:15:06.340Z,86.50
2018-10-19T09:17:34.436Z,85.60
2018-10-19T09:20:02.578Z,85.60
2018-10-19T09:22:30.760Z,85.40
2018-10-19T09:24:58.931Z,84.80
2018-10-19T09:27:27.091Z,84.80
2018-10-19T09:29:55.267Z,84.40
2018-10-19T09:32:23.430Z,83.40
2018-10-19T09:34:51.592Z,83.30
2018-10-19T09:37:19.750Z,83.10
2018-10-19T09:39:47.902Z,82.10
2018-10-19T09:42:16.098Z,81.50
2018-10-19T09:44:44.295Z,81.30
2018-10-19T09:47:12.532Z,80.80
2018-10-19T09:49:40.630Z,81.20
2018-10-19T09:52:08.799Z,81.20
2018-10-19T09:54:37.011Z,80.90
2018-10-19T09:57:05.600Z,80.80
2018-10-19T09:59:33.703Z,80.60
2018-10-19T10:02:01.983Z,81.50
2018-10-19T10:04:30.053Z,80.60
2018-10-19T10:06:58.292Z,79.90
2018-10-19T10:09:26.414Z,78.40
2018-10-19T10:11:54.604Z,78.00
2018-10-19T10:14:22.782Z,76.10
2018-10-19T10:16:50.970Z,76.10
2018-10-19T10:19:19.138Z,75.60
2018-10-19T10:21:47.309Z,76.10
2018-10-19T10:24:15.459Z,75.90
2018-10-19T10:26:43.661Z,76.30
2018-10-19T10:29:11.829Z,76.10
2018-10-19T10:31:40.004Z,75.50
2018-10-19T10:34:08.244Z,73.70
2018-10-19T10:36:36.367Z,73.40
2018-10-19T10:39:09.423Z,73.50
2018-10-19T10:41:37.614Z,73.00
2018-10-19T10:44:05.798Z,72.10
2018-10-19T10:46:33.951Z,70.60
2018-10-19T10:49:02.113Z,69.70
2018-10-19T10:51:30.296Z,68.40
2018-10-19T10:53:58.437Z,68.10
2018-10-19T10:56:26.618Z,68.30
2018-10-19T10:58:54.792Z,67.60
2018-10-19T11:01:22.963Z,66.10
2018-10-19T11:03:51.312Z,66.20
2018-10-19T11:06:19.484Z,65.80
2018-10-19T11:08:47.626Z,66.20
2018-10-19T11:11:16.114Z,66.20
2018-10-19T11:13:44.578Z,65.80
2018-10-19T11:16:13.681Z,66.20
2018-10-19T11:18:41.947Z,66.90
2018-10-19T11:21:10.165Z,65.60
2018-10-19T11:23:38.339Z,64.80
2018-10-19T11:26:06.684Z,63.60
2018-10-19T11:28:34.892Z,61.80
2018-10-19T11:31:03.337Z,61.10
2018-10-19T11:33:31.511Z,60.00
2018-10-19T11:36:00.151Z,60.20
2018-10-19T11:38:28.326Z,59.20
2018-10-19T11:40:56.510Z,58.50
2018-10-19T11:43:24.678Z,57.70
2018-10-19T11:45:52.837Z,59.20
2018-10-19T11:48:20.985Z,59.40
2018-10-19T11:50:49.142Z,60.10
2018-10-19T11:53:17.326Z,60.20
2018-10-19T11:55:45.706Z,60.20
2018-10-19T11:58:13.886Z,60.70
2018-10-19T12:00:42.060Z,61.40
2018-10-19T12:03:10.249Z,61.30
2018-10-19T12:05:38.412Z,60.40
2018-10-19T12:08:06.573Z,60.40
2018-10-19T12:10:34.738Z,61.20
2018-10-19T12:13:03.000Z,60.50
2018-10-19T12:15:31.117Z,61.70
2018-10-19T12:17:59.269Z,61.30
2018-10-19T12:20:27.443Z,60.50
2018-10-19T12:22:55.695Z,60.90
2018-10-19T12:25:23.907Z,59.90
2018-10-19T12:27:52.042Z,59.80
2018-10-19T12:30:20.198Z,59.40
2018-10-19T12:32:48.362Z,59.00
2018-10-19T12:35:17.538Z,58.60
2018-10-19T12:37:45.688Z,58.30
2018-10-19T12:40:13.860Z,56.70
2018-10-19T12:42:42.026Z,55.30
2018-10-19T12:45:20.203Z,54.40
2018-10-19T12:47:48.369Z,53.90
2018-10-19T12:50:16.549Z,53.40
2018-10-19T12:52:44.719Z,52.80
2018-10-19T12:55:12.947Z,52.90
2018-10-19T12:57:41.112Z,52.90
2018-10-19T13:00:09.240Z,53.00
2018-10-19T13:02:37.414Z,52.50
2018-10-19T13:05:05.561Z,52.40
2018-10-19T13:07:33.706Z,53.20
2018-10-19T13:10:01.892Z,52.30
2018-10-19T13:12:30.087Z,53.80
2018-10-19T13:14:58.314Z,55.40
2018-10-19T13:17:26.422Z,55.60
2018-10-19T13:19:54.587Z,54.90
2018-10-19T13:22:22.780Z,54.00
2018-10-19T13:24:50.970Z,54.20
2018-10-19T13:27:19.159Z,55.00
2018-10-19T13:29:47.334Z,56.20
2018-10-19T13:32:15.504Z,57.50
2018-10-19T13:34:43.675Z,58.20
2018-10-19T13:37:11.888Z,59.10
2018-10-19T13:39:40.047Z,59.40
2018-10-19T13:42:08.219Z,59.40
2018-10-19T13:44:36.406Z,59.50
2018-10-19T13:47:04.702Z,59.10
2018-10-19T13:49:32.809Z,59.70
2018-10-19T13:52:00.979Z,60.70
2018-10-19T13:54:29.185Z,61.50
2018-10-19T13:56:57.418Z,61.30
2018-10-19T13:59:25.537Z,61.90
2018-10-19T14:01:53.710Z,61.20
2018-10-19T14:04:21.890Z,59.50
2018-10-19T14:06:50.072Z,57.30
2018-10-19T14:09:18.257Z,55.60
2018-10-19T14:11:46.472Z,54.90
2018-10-19T14:14:14.702Z,54.80
2018-10-19T14:16:42.860Z,54.60
2018-10-19T14:19:11.104Z,54.20
2018-10-19T14:21:39.236Z,54.20
2018-10-19T14:24:07.421Z,56.00
2018-10-19T14:26:35.685Z,56.20
2018-10-19T14:29:03.978Z,55.90
2018-10-19T14:31:32.106Z,56.40
2018-10-19T14:34:00.274Z,57.10
2018-10-19T14:36:28.437Z,57.90
2018-10-19T14:38:56.644Z,58.80
2018-10-19T14:41:24.788Z,59.70
2018-10-19T14:43:52.953Z,61.30
2018-10-19T14:46:21.172Z,62.70
2018-10-19T14:48:49.332Z,63.30
2018-10-19T14:51:17.508Z,63.60
2018-10-19T14:53:45.680Z,64.90
2018-10-19T14:56:13.858Z,65.50
2018-10-19T14:58:42.031Z,65.80
2018-10-19T15:01:10.207Z,65.80
2018-10-19T15:03:38.455Z,65.30
2018-10-19T15:06:06.633Z,64.50
2018-10-19T15:08:34.787Z,65.30
2018-10-19T15:11:03.071Z,65.40
2018-10-19T15:13:31.204Z,66.30
2018-10-19T15:15:59.401Z,67.40
2018-10-19T15:18:27.664Z,67.90
2018-10-19T15:20:55.795Z,67.80
2018-10-19T15:23:23.971Z,68.10
2018-10-19T15:25:52.136Z,67.90
2018-10-19T15:28:20.314Z,68.00
2018-10-19T15:30:48.514Z,67.80
2018-10-19T15:33:16.773Z,68.50
2018-10-19T15:35:44.839Z,69.00
2018-10-19T15:38:13.011Z,69.70
2018-10-19T15:40:41.231Z,69.80
2018-10-19T15:43:09.410Z,70.20
2018-10-19T15:45:37.559Z,70.70
2018-10-19T15:48:05.837Z,71.30
2018-10-19T15:50:33.991Z,71.40
2018-10-19T15:53:02.176Z,71.60
2018-10-19T15:55:30.349Z,71.60
2018-10-19T15:57:58.487Z,72.40
2018-10-19T16:00:26.823Z,72.70
2018-10-19T16:02:54.881Z,73.30
2018-10-19T16:05:23.016Z,74.00
2018-10-19T16:07:51.201Z,74.30
2018-10-19T16:10:19.604Z,74.50
2018-10-19T16:12:47.752Z,75.00
2018-10-19T16:15:16.043Z,75.30
2018-10-19T16:17:44.187Z,75.70
2018-10-19T16:20:12.287Z,76.00
2018-10-19T16:22:40.515Z,76.50
2018-10-19T16:25:09.098Z,77.00
2018-10-19T16:27:38.663Z,77.60
2018-10-19T16:30:08.720Z,78.10
2018-10-19T16:32:37.215Z,78.60
2018-10-19T16:35:05.470Z,79.00
2018-10-19T16:37:33.740Z,79.50
2018-10-19T16:40:01.925Z,79.80
2018-10-19T16:42:30.055Z,80.00
2018-10-19T16:44:58.202Z,80.10
2018-10-19T16:47:26.344Z,80.10
2018-10-19T16:49:54.534Z,80.20
2018-10-19T16:52:22.845Z,81.30
2018-10-19T16:54:50.970Z,81.10
2018-10-19T16:57:19.119Z,81.20
2018-10-19T16:59:47.308Z,81.40
2018-10-19T17:02:15.460Z,82.20
2018-10-19T17:04:43.897Z,82.50
2018-10-19T17:07:11.960Z,83.10
2018-10-19T17:09:40.114Z,83.60
2018-10-19T17:12:08.351Z,83.70
2018-10-19T17:14:36.516Z,84.10
2018-10-19T17:17:05.080Z,84.20
2018-10-19T17:19:33.249Z,84.80
2018-10-19T17:22:01.616Z,84.90
2018-10-19T17:24:29.798Z,85.10
2018-10-19T17:26:58.378Z,85.60
2018-10-19T17:29:26.599Z,86.00
2018-10-19T17:31:54.784Z,85.90
2018-10-19T17:34:22.918Z,86.00
2018-10-19T17:36:51.154Z,86.20
2018-10-19T17:39:20.090Z,86.00
2018-10-19T17:41:48.258Z,86.40
2018-10-19T17:44:16.482Z,86.60
2018-10-19T17:46:44.639Z,86.60
2018-10-19T17:49:12.859Z,86.90
2018-10-19T17:51:41.071Z,86.90
2018-10-19T17:54:09.488Z,87.20
2018-10-19T17:56:37.644Z,87.50
2018-10-19T17:59:05.908Z,87.70
2018-10-19T18:01:35.098Z,88.20
2018-10-19T18:04:03.493Z,87.50
2018-10-19T18:06:31.687Z,87.90
2018-10-19T18:08:59.924Z,88.90
2018-10-19T18:11:28.083Z,88.30
2018-10-19T18:13:56.390Z,88.50
2018-10-19T18:16:24.582Z,88.50
2018-10-19T18:18:52.921Z,88.60
2018-10-19T18:21:21.200Z,88.80
2018-10-19T18:23:49.417Z,88.80
2018-10-19T18:26:17.858Z,89.00
2018-10-19T18:28:46.179Z,89.60
2018-10-19T18:31:14.318Z,88.90
2018-10-19T18:33:42.503Z,89.00
2018-10-19T18:36:10.714Z,88.90
2018-10-19T18:38:38.854Z,88.90
2018-10-19T18:41:07.032Z,88.70
2018-10-19T18:43:35.190Z,88.80
2018-10-19T18:46:03.383Z,89.20
2018-10-19T18:48:31.522Z,88.90
2018-10-19T18:50:59.727Z,89.20
2018-10-19T18:53:27.895Z,89.00
2018-10-19T18:55:56.328Z,89.40
2018-10-19T18:58:24.455Z,90.20
2018-10-19T19:00:52.633Z,90.00
2018-10-19T19:03:20.834Z,90.00
2018-10-19T19:05:51.807Z,89.90
2018-10-19T19:08:20.079Z,89.90
2018-10-19T19:10:48.231Z,90.20
2018-10-19T19:13:21.955Z,89.50
2018-10-19T19:15:50.147Z,89.80
2018-10-19T19:18:18.515Z,89.90
2018-10-19T19:20:46.671Z,89.80
2018-10-19T19:23:14.865Z,90.00
2018-10-19T19:25:48.250Z,90.00
2018-10-19T19:28:16.402Z,89.90
2018-10-19T19:30:44.606Z,90.00
2018-10-19T19:33:18.085Z,89.80
2018-10-19T19:35:46.331Z,89.90
2018-10-19T19:38:14.554Z,90.00
2018-10-19T19:40:48.258Z,89.90
2018-10-19T19:43:16.438Z,90.00
2018-10-19T19:45:44.606Z,90.10
2018-10-19T19:48:18.110Z,90.20
2018-10-19T19:50:46.312Z,90.20
2018-10-19T19:53:14.515Z,90.40
2018-10-19T19:55:42.685Z,90.50
2018-10-19T19:58:10.893Z,90.30
2018-10-19T20:00:39.002Z,90.50
2018-10-19T20:03:07.167Z,90.60
2018-10-19T20:05:35.402Z,90.70
2018-10-19T20:08:03.595Z,90.90
2018-10-19T20:10:31.767Z,91.00
2018-10-19T20:12:59.930Z,91.20
2018-10-19T20:15:28.132Z,91.20
2018-10-19T20:17:56.283Z,91.30
2018-10-19T20:20:24.460Z,91.30
2018-10-19T20:22:53.159Z,91.10
2018-10-19T20:25:21.324Z,91.20
2018-10-19T20:27:49.493Z,91.30
2018-10-19T20:30:17.715Z,91.40
2018-10-19T20:32:45.878Z,91.30
2018-10-19T20:35:14.058Z,91.30
2018-10-19T20:37:42.181Z,91.30
2018-10-19T20:40:10.334Z,91.40
2018-10-19T20:42:38.547Z,91.40
2018-10-19T20:45:07.338Z,91.40
2018-10-19T20:47:35.487Z,91.30
2018-10-19T20:50:03.691Z,91.40
2018-10-19T20:52:31.835Z,91.40
2018-10-19T20:54:59.993Z,91.40
2018-10-19T20:57:28.357Z,91.40
2018-10-19T20:59:56.484Z,91.50
2018-10-19T21:02:24.667Z,91.40
2018-10-19T21:04:55.516Z,91.40
2018-10-19T21:07:25.951Z,91.30
2018-10-19T21:09:55.787Z,91.50
2018-10-19T21:12:25.662Z,91.50
2018-10-19T21:14:56.141Z,91.50
2018-10-19T21:17:25.654Z,91.50
2018-10-19T21:19:55.893Z,91.40
2018-10-19T21:22:26.519Z,91.40
2018-10-19T21:24:56.508Z,91.40
2018-10-19T21:27:26.253Z,91.60
2018-10-19T21:29:56.551Z,91.60
2018-10-19T21:32:26.706Z,91.60
2018-10-19T21:34:56.618Z,91.50
2018-10-19T21:37:26.912Z,91.50
2018-10-19T21:39:57.561Z,91.40
2018-10-19T21:42:27.240Z,91.40
2018-10-19T21:44:57.059Z,91.40
2018-10-19T21:47:27.221Z,91.50
2018-10-19T21:49:57.718Z,91.40
2018-10-19T21:52:27.823Z,91.10
2018-10-19T21:54:57.279Z,91.00
2018-10-19T21:57:27.145Z,91.00
2018-10-19T21:59:57.226Z,90.90
2018-10-19T22:02:27.315Z,90.90
2018-10-19T22:04:57.065Z,90.80
2018-10-19T22:07:26.629Z,91.00
2018-10-19T22:09:56.554Z,90.80
2018-10-19T22:12:26.028Z,90.80
2018-10-19T22:14:56.583Z,91.00
2018-10-19T22:17:26.027Z,91.20
2018-10-19T22:19:55.596Z,91.10
2018-10-19T22:22:25.397Z,91.30
2018-10-19T22:24:55.135Z,91.30
2018-10-19T22:27:24.811Z,91.50
2018-10-19T22:29:54.464Z,91.80
2018-10-19T22:32:24.221Z,92.00
2018-10-19T22:34:53.793Z,92.10
2018-10-19T22:37:24.202Z,92.30
2018-10-19T22:39:53.626Z,92.30
2018-10-19T22:42:23.179Z,92.40
2018-10-19T22:44:52.489Z,92.60
2018-10-19T22:47:22.266Z,92.50
2018-10-19T22:49:51.769Z,92.60
2018-10-19T22:52:21.596Z,92.40
2018-10-19T22:54:51.285Z,92.20
2018-10-19T22:57:20.991Z,92.20
2018-10-19T22:59:50.452Z,92.20
2018-10-19T23:02:19.793Z,92.40
2018-10-19T23:04:49.442Z,92.40
2018-10-19T23:07:18.946Z,92.20
2018-10-19T23:09:48.790Z,92.30
2018-10-19T23:12:18.688Z,92.40
2018-10-19T23:14:48.039Z,92.30
2018-10-19T23:17:17.707Z,92.30
2018-10-19T23:19:47.181Z,92.30
2018-10-19T23:22:16.810Z,92.30
2018-10-19T23:24:46.573Z,92.30
2018-10-19T23:27:16.209Z,92.40
2018-10-19T23:29:46.264Z,92.50
2018-10-19T23:32:17.154Z,92.50
2018-10-19T23:34:48.359Z,92.60
2018-10-19T23:37:19.785Z,92.60
2018-10-19T23:39:50.863Z,92.60
2018-10-19T23:42:19.631Z,92.50
2018-10-19T23:44:51.603Z,92.60
2018-10-19T23:47:21.170Z,92.70
2018-10-19T23:49:50.971Z,92.60
2018-10-19T23:52:21.438Z,92.70
2018-10-19T23:54:51.457Z,92.70
2018-10-19T23:57:19.914Z,92.70
2018-10-19T23:59:48.149Z,92.80
